KPIT/PIT METAR and TAF weather

Enter ICAO airport designator
Station Type Date Time Source
KPIT METAR 2019/10/23 12:51 UTC NOAA

KPIT 231251Z 23008KT 10SM CLR 08/03 A3001 RMK AO2 SLP173 T00780033


Station Type Date Time Source
KPIT Decoded METAR 2019/10/23 12:51 UTC NOAA

GREATER PITTSBURGH INTERNATIONAL , PA, United States (KPIT) 40-29N 80-14W 357M
Oct 23, 2019 - 08:51 AM EDT / 2019.10.23 1251 UTC
Wind: from the SW (230 degrees) at 9 MPH (8 KT):0
Visibility: 10 mile(s):0
Sky conditions: clear
Temperature: 46.0 F (7.8 C)
Dew Point: 37.9 F (3.3 C)
Relative Humidity: 73%
Pressure (altimeter): 30.01 in. Hg (1016 hPa)
ob: KPIT 231251Z 23008KT 10SM CLR 08/03 A3001 RMK AO2 SLP173 T00780033
cycle: 13

Station Type Date Time Source
KPIT TAF 2019/10/23 12:30 UTC NOAA

KPIT 231126Z 2312/2418 23006KT P6SM SKC
FM231400 25015G25KT P6SM SKC
FM232200 22005KT P6SM SKC
FM240800 20005KT P6SM SKC WS015/23035KT
FM241400 21008KT P6SM SCT150

Example: see airport list